Overview Statistics Trail Chart Weather Telemetry Raw packets
 

This is the latest recevied weather packets stored in our database for station/object EA1GEC-10. If no packets are shown the sender has not sent any weather packets the latest 10 day(s).

<< 1 2 3 4 5 6 >>
Time Temp. Humidity Pressure Rain* Wind** Luminosity Snow
1777830050 13.89° C 69% 1020.2 hPa - - - -
1777829148 13.89° C 70% 1020.2 hPa - - - -
1777828257 13.89° C 69% 1020.2 hPa - - - -
1777828096 13.89° C 69% 1020.1 hPa - - - -
1777827196 13.89° C 69% 1020.1 hPa - - - -
1777826296 14.44° C 67% 1019.9 hPa - - - -
1777825399 14.44° C 66% 1019.8 hPa - - - -
1777824499 14.44° C 66% 1019.8 hPa - - - -
1777823605 15° C 64% 1019.7 hPa - - - -
1777822695 15.56° C 63% 1019.7 hPa - - - -
1777821829 16.11° C 63% 1019.8 hPa - - - -
1777821795 16.11° C 63% 1019.8 hPa - - - -
1777820895 17.22° C 62% 1019.7 hPa - - - -
1777819995 16.11° C 65% 1020 hPa - - - -
1777819095 15.56° C 66% 1019.9 hPa - - - -
1777818195 15° C 65% 1020 hPa - - - -
1777817295 16.67° C 63% 1020 hPa - - - -
1777816395 16.11° C 63% 1020.1 hPa - - - -
1777813685 15° C 65% 1020.3 hPa - - - -
1777812785 15° C 65% 1020.4 hPa - - - -
1777811885 15° C 64% 1020.3 hPa - - - -
1777810984 15.56° C 63% 1019.9 hPa - - - -
1777810084 15.56° C 60% 1019.9 hPa - - - -
1777809184 18.33° C 57% 1020 hPa - - - -
1777808284 18.89° C 61% 1020 hPa - - - -

* Rain since midnight (hover to see other rain measurements)
** Current wind speed in m/s (hover to see current wind gust speed)